createdAt,value
2022-09-03T00:00:15.051Z,99340.72
2022-09-03T00:04:29.271Z,99339.59
2022-09-03T00:08:39.036Z,99337.94
2022-09-03T00:12:44.768Z,99339.38
2022-09-03T00:17:00.716Z,99345.78
2022-09-03T00:21:08.774Z,99341.84
2022-09-03T00:25:29.142Z,99337.13
2022-09-03T00:29:41.412Z,99326.59
2022-09-03T00:33:46.809Z,99328.34
2022-09-03T00:37:49.143Z,99334.88
2022-09-03T00:41:59.584Z,99320.94
2022-09-03T00:46:07.433Z,99318.75
2022-09-03T00:50:29.976Z,99319.59
2022-09-03T00:54:40.577Z,99325.69
2022-09-03T00:59:01.706Z,99324.72
2022-09-03T01:03:11.119Z,99329.88
2022-09-03T01:07:18.538Z,99339.28
2022-09-03T01:11:51.561Z,99337.22
2022-09-03T01:16:21.670Z,99350.53
2022-09-03T01:20:35.179Z,99333.78
2022-09-03T01:24:49.737Z,99327.38
2022-09-03T01:29:13.053Z,99321.69
2022-09-03T01:33:38.403Z,99325.09
2022-09-03T01:37:54.169Z,99316.44
2022-09-03T01:42:16.423Z,99311.03
2022-09-03T01:46:29.515Z,99316.09
2022-09-03T01:51:22.779Z,99318.88
2022-09-03T01:55:30.083Z,99324.56
2022-09-03T01:59:38.227Z,99335.44
2022-09-03T02:03:44.727Z,99332.31
2022-09-03T02:07:49.463Z,99337.41
2022-09-03T02:11:59.580Z,99340.38
2022-09-03T02:16:07.746Z,99333.66
2022-09-03T02:20:12.054Z,99335.63
2022-09-03T02:24:14.114Z,99334.47
2022-09-03T02:28:17.735Z,99326.53
2022-09-03T02:32:19.494Z,99349.56
2022-09-03T02:36:27.739Z,99339.50
2022-09-03T02:40:29.435Z,99335.91
2022-09-03T02:44:35.662Z,99338.88
2022-09-03T02:48:39.509Z,99340.22
2022-09-03T02:52:41.139Z,99337.44
2022-09-03T02:56:43.824Z,99332.69
2022-09-03T03:00:45.472Z,99329.06
2022-09-03T03:04:47.112Z,99333.50
2022-09-03T03:08:50.236Z,99330.09
2022-09-03T03:12:51.839Z,99342.09
2022-09-03T03:16:53.465Z,99336.16
2022-09-03T03:20:55.504Z,99329.28
2022-09-03T03:24:57.809Z,99326.16
2022-09-03T03:29:01.574Z,99321.72
2022-09-03T03:33:03.840Z,99316.78
2022-09-03T03:37:05.832Z,99322.34
2022-09-03T03:41:13.165Z,99321.22
2022-09-03T03:45:14.778Z,99326.72
2022-09-03T03:49:16.335Z,99334.19
2022-09-03T03:53:18.147Z,99336.97
2022-09-03T03:57:20.958Z,99338.59
2022-09-03T04:01:25.406Z,99340.38
2022-09-03T04:05:27.046Z,99337.50
2022-09-03T04:09:35.284Z,99339.66
2022-09-03T04:13:39.585Z,99342.38
2022-09-03T04:17:41.179Z,99343.72
2022-09-03T04:21:43.071Z,99338.47
2022-09-03T04:25:45.053Z,99337.13
2022-09-03T04:29:50.254Z,99320.69
2022-09-03T04:33:51.834Z,99322.13
2022-09-03T04:37:55.216Z,99320.78
2022-09-03T04:41:57.659Z,99331.13
2022-09-03T04:46:04.411Z,99330.00
2022-09-03T04:50:06.639Z,99335.78
2022-09-03T04:54:09.985Z,99337.31
2022-09-03T04:58:11.691Z,99333.91
2022-09-03T05:02:15.119Z,99331.94
2022-09-03T05:06:17.479Z,99332.06
2022-09-03T05:10:22.616Z,99336.69
2022-09-03T05:14:24.340Z,99340.22
2022-09-03T05:18:25.996Z,99349.72
2022-09-03T05:22:27.583Z,99352.72
2022-09-03T05:26:31.528Z,99345.97
2022-09-03T05:30:33.161Z,99356.22
2022-09-03T05:34:34.774Z,99358.69
2022-09-03T05:38:36.922Z,99371.19
2022-09-03T05:42:39.130Z,99380.38
2022-09-03T05:46:40.789Z,99368.09
2022-09-03T05:50:42.354Z,99378.63
2022-09-03T05:54:43.911Z,99389.78
2022-09-03T05:58:48.196Z,99387.47
2022-09-03T06:02:53.695Z,99389.34
2022-09-03T06:06:56.265Z,99394.94
2022-09-03T06:10:59.368Z,99405.59
2022-09-03T06:15:01.016Z,99404.91
2022-09-03T06:19:03.883Z,99411.41
2022-09-03T06:23:05.437Z,99412.78
2022-09-03T06:27:08.598Z,99421.47
2022-09-03T06:31:14.691Z,99428.69
2022-09-03T06:35:16.695Z,99435.47
2022-09-03T06:39:18.436Z,99438.94
2022-09-03T06:43:20.281Z,99437.06
2022-09-03T06:47:21.952Z,99432.97
2022-09-03T06:51:27.159Z,99438.56
2022-09-03T06:55:28.865Z,99442.84
2022-09-03T06:59:30.444Z,99451.56
2022-09-03T07:03:32.684Z,99450.84
2022-09-03T07:07:34.465Z,99451.78
2022-09-03T07:11:37.285Z,99443.41
2022-09-03T07:15:40.266Z,99443.84
2022-09-03T07:19:41.748Z,99447.97
2022-09-03T07:23:44.172Z,99449.00
2022-09-03T07:27:47.365Z,99442.94
2022-09-03T07:31:53.590Z,99440.84
2022-09-03T07:35:55.291Z,99453.38
2022-09-03T07:39:56.936Z,99457.44
2022-09-03T07:43:59.765Z,99452.00
2022-09-03T07:48:01.483Z,99462.31
2022-09-03T07:52:03.299Z,99448.41
2022-09-03T07:56:10.072Z,99456.09
2022-09-03T08:00:13.513Z,99456.09
2022-09-03T08:04:15.140Z,99469.56
2022-09-03T08:08:17.951Z,99464.03
2022-09-03T08:12:21.414Z,99471.44
2022-09-03T08:16:23.243Z,99474.28
2022-09-03T08:20:24.969Z,99476.06
2022-09-03T08:24:26.742Z,99465.69
2022-09-03T08:28:28.652Z,99461.34
2022-09-03T08:32:30.504Z,99459.16
2022-09-03T08:36:34.663Z,99460.88
2022-09-03T08:40:38.240Z,99454.63
2022-09-03T08:44:50.474Z,99448.69
2022-09-03T08:48:53.114Z,99462.44
2022-09-03T08:53:14.458Z,99468.00
2022-09-03T08:57:19.330Z,99473.75
2022-09-03T09:02:11.151Z,99483.44
2022-09-03T09:06:56.072Z,99488.16
2022-09-03T09:11:08.759Z,99487.72
2022-09-03T09:15:13.685Z,99499.16
2022-09-03T09:19:31.802Z,99508.16
2022-09-03T09:23:43.582Z,99509.41
2022-09-03T09:28:03.197Z,99519.09
2022-09-03T09:32:09.120Z,99521.06
2022-09-03T09:36:16.486Z,99515.84
2022-09-03T09:40:33.945Z,99516.25
2022-09-03T09:44:37.061Z,99511.59
2022-09-03T09:48:48.476Z,99503.38
2022-09-03T09:53:08.349Z,99497.91
2022-09-03T09:57:26.152Z,99507.59
2022-09-03T10:01:30.467Z,99513.50
2022-09-03T10:05:37.873Z,99523.44
2022-09-03T10:09:39.436Z,99507.91
2022-09-03T10:13:45.745Z,99517.31
2022-09-03T10:18:00.686Z,99508.19
2022-09-03T10:22:10.167Z,99501.50
2022-09-03T10:26:17.042Z,99500.69
2022-09-03T10:30:18.848Z,99496.72
2022-09-03T10:34:41.760Z,99502.84
2022-09-03T10:38:43.978Z,99501.25
2022-09-03T10:43:18.639Z,99510.66
2022-09-03T10:47:43.273Z,99504.78
2022-09-03T10:51:59.594Z,99506.28
2022-09-03T10:56:24.951Z,99506.38
2022-09-03T11:00:30.874Z,99504.97
2022-09-03T11:04:52.428Z,99489.84
2022-09-03T11:09:06.485Z,99486.97
2022-09-03T11:13:23.031Z,99495.69
2022-09-03T11:17:32.317Z,99486.66
2022-09-03T11:21:37.839Z,99486.53
2022-09-03T11:25:49.107Z,99484.69
2022-09-03T11:30:09.725Z,99484.72
2022-09-03T11:34:31.962Z,99472.34
2022-09-03T11:38:35.287Z,99478.03
2022-09-03T11:42:38.369Z,99467.53
2022-09-03T11:46:46.194Z,99463.44
2022-09-03T11:50:55.673Z,99452.34
2022-09-03T11:55:00.574Z,99459.56
2022-09-03T11:59:14.401Z,99461.66
2022-09-03T12:03:18.852Z,99459.94
2022-09-03T12:07:42.036Z,99455.59
2022-09-03T12:12:09.361Z,99446.81
2022-09-03T12:21:03.535Z,99457.19
2022-09-03T12:25:16.954Z,99453.22
2022-09-03T12:29:31.129Z,99447.28
2022-09-03T12:33:41.863Z,99447.28
2022-09-03T12:42:16.981Z,99436.16
2022-09-03T12:46:18.876Z,99424.84
2022-09-03T12:50:24.915Z,99430.94
2022-09-03T12:54:27.726Z,99427.22
2022-09-03T12:58:40.401Z,99434.53
2022-09-03T13:03:08.082Z,99439.25
2022-09-03T13:07:23.787Z,99442.81
2022-09-03T13:11:26.188Z,99448.72
2022-09-03T13:15:29.537Z,99453.31
2022-09-03T13:19:37.065Z,99443.56
2022-09-03T13:23:57.443Z,99444.94
2022-09-03T13:28:23.442Z,99444.91
2022-09-03T13:32:27.974Z,99455.84
2022-09-03T13:36:49.269Z,99456.16
2022-09-03T13:41:03.909Z,99455.59
2022-09-03T13:45:31.602Z,99449.91
2022-09-03T13:49:59.350Z,99450.19
2022-09-03T13:54:13.477Z,99440.63
2022-09-03T13:58:33.974Z,99439.34
2022-09-03T14:03:16.233Z,99436.47
2022-09-03T14:07:25.731Z,99444.09
2022-09-03T14:11:35.193Z,99433.88
2022-09-03T14:15:45.904Z,99429.25
2022-09-03T14:20:01.248Z,99422.31
2022-09-03T14:24:34.656Z,99416.47
2022-09-03T14:28:40.819Z,99415.28
2022-09-03T14:32:55.064Z,99423.81
2022-09-03T14:37:14.812Z,99428.75
2022-09-03T14:41:52.491Z,99420.34
2022-09-03T14:46:28.154Z,99424.84
2022-09-03T14:51:04.935Z,99426.84
2022-09-03T14:55:35.941Z,99425.56
2022-09-03T14:59:43.805Z,99415.22
2022-09-03T15:04:20.236Z,99420.22
2022-09-03T15:08:46.724Z,99421.44
2022-09-03T15:13:10.282Z,99412.00
2022-09-03T15:17:41.097Z,99418.78
2022-09-03T15:21:55.427Z,99414.38
2022-09-03T15:26:19.844Z,99418.31
2022-09-03T15:30:21.630Z,99420.59
2022-09-03T15:34:34.496Z,99423.91
2022-09-03T15:38:51.391Z,99423.09
2022-09-03T15:42:58.733Z,99434.59
2022-09-03T15:47:05.342Z,99433.47
2022-09-03T15:51:45.764Z,99439.94
2022-09-03T15:55:48.299Z,99441.84
2022-09-03T15:59:49.811Z,99437.81
2022-09-03T16:04:01.728Z,99446.97
2022-09-03T16:08:19.988Z,99442.38
2022-09-03T16:12:46.002Z,99438.25
2022-09-03T16:17:28.905Z,99429.47
2022-09-03T16:21:30.467Z,99428.41
2022-09-03T16:25:38.652Z,99440.63
2022-09-03T16:29:40.571Z,99440.13
2022-09-03T16:34:18.944Z,99439.31
2022-09-03T16:38:30.000Z,99444.06
2022-09-03T16:42:44.948Z,99448.84
2022-09-03T16:47:00.282Z,99457.63
2022-09-03T16:51:29.257Z,99459.75
2022-09-03T16:56:00.200Z,99463.38
2022-09-03T17:00:21.031Z,99485.69
2022-09-03T17:04:22.539Z,99480.38
2022-09-03T17:08:32.609Z,99485.06
2022-09-03T17:12:52.529Z,99485.94
2022-09-03T17:17:16.406Z,99493.72
2022-09-03T17:21:33.965Z,99485.13
2022-09-03T17:26:06.528Z,99489.41
2022-09-03T17:30:11.088Z,99486.84
2022-09-03T17:34:54.846Z,99483.16
2022-09-03T17:39:08.673Z,99468.94
2022-09-03T17:43:42.304Z,99482.41
2022-09-03T17:47:53.816Z,99493.41
2022-09-03T17:52:14.150Z,99505.19
2022-09-03T17:56:29.710Z,99502.47
2022-09-03T18:00:38.176Z,99505.47
2022-09-03T18:04:49.077Z,99516.97
2022-09-03T18:09:17.033Z,99526.88
2022-09-03T18:13:40.205Z,99540.88
2022-09-03T18:17:51.611Z,99553.31
2022-09-03T18:22:12.462Z,99555.09
2022-09-03T18:26:44.492Z,99560.78
2022-09-03T18:31:04.950Z,99558.94
2022-09-03T18:35:27.237Z,99573.31
2022-09-03T18:39:48.167Z,99571.91
2022-09-03T18:44:57.859Z,99580.47
2022-09-03T18:49:47.719Z,99568.13
2022-09-03T18:54:14.314Z,99573.59
2022-09-03T18:58:54.403Z,99571.84
2022-09-03T19:03:48.219Z,99574.53
2022-09-03T19:08:24.569Z,99580.28
2022-09-03T19:12:59.027Z,99582.13
2022-09-03T19:17:29.502Z,99581.38
2022-09-03T19:22:04.473Z,99582.59
2022-09-03T19:26:46.459Z,99585.72
2022-09-03T19:31:24.020Z,99592.19
2022-09-03T19:35:59.742Z,99585.78
2022-09-03T19:40:59.019Z,99593.25
2022-09-03T19:45:31.044Z,99595.72
2022-09-03T19:50:18.633Z,99597.91
2022-09-03T19:54:42.681Z,99593.97
2022-09-03T19:59:16.748Z,99600.91
2022-09-03T20:03:37.539Z,99605.38
2022-09-03T20:07:58.315Z,99608.97
2022-09-03T20:12:07.356Z,99605.66
2022-09-03T20:16:32.903Z,99617.13
2022-09-03T20:20:58.071Z,99615.78
2022-09-03T20:25:16.179Z,99617.22
2022-09-03T20:29:34.187Z,99627.00
2022-09-03T20:33:49.452Z,99630.41
2022-09-03T20:38:22.292Z,99626.03
2022-09-03T20:42:43.939Z,99631.19
2022-09-03T20:47:07.325Z,99624.25
2022-09-03T20:51:22.854Z,99622.69
2022-09-03T20:55:29.578Z,99628.00
2022-09-03T20:59:53.244Z,99639.22
2022-09-03T21:04:04.612Z,99638.16
2022-09-03T21:08:25.318Z,99641.53
2022-09-03T21:12:51.393Z,99641.63
2022-09-03T21:17:06.049Z,99640.88
2022-09-03T21:21:36.263Z,99645.38
2022-09-03T21:25:44.997Z,99651.25
2022-09-03T21:29:58.255Z,99656.50
2022-09-03T21:34:09.765Z,99659.56
2022-09-03T21:38:19.208Z,99667.81
2022-09-03T21:42:36.618Z,99668.28
2022-09-03T21:46:48.245Z,99664.59
2022-09-03T21:51:00.140Z,99667.38
2022-09-03T21:55:19.215Z,99664.09
2022-09-03T21:59:29.923Z,99677.75
2022-09-03T22:03:31.594Z,99679.50
2022-09-03T22:08:30.716Z,99679.66
2022-09-03T22:12:50.418Z,99683.09
2022-09-03T22:17:02.875Z,99687.69
2022-09-03T22:21:11.445Z,99681.38
2022-09-03T22:25:21.416Z,99672.25
2022-09-03T22:29:55.071Z,99671.22
2022-09-03T22:34:21.177Z,99676.00
2022-09-03T22:38:39.661Z,99672.44
2022-09-03T22:43:13.850Z,99688.09
2022-09-03T22:47:30.199Z,99689.28
2022-09-03T22:52:14.102Z,99685.94
2022-09-03T22:56:22.366Z,99682.09
2022-09-03T23:00:24.147Z,99686.81
2022-09-03T23:04:31.484Z,99689.38
2022-09-03T23:08:49.929Z,99689.97
2022-09-03T23:13:17.737Z,99690.56
2022-09-03T23:21:41.522Z,99691.72
2022-09-03T23:25:49.580Z,99695.94
2022-09-03T23:29:54.948Z,99697.97
2022-09-03T23:33:57.341Z,99703.78
2022-09-03T23:38:23.177Z,99706.88
2022-09-03T23:42:39.973Z,99711.06
2022-09-03T23:47:07.655Z,99709.13
2022-09-03T23:51:34.145Z,99706.91
2022-09-03T23:56:05.240Z,99716.19
